Time;durP1;ratioP1;P1;durP2;ratioP2;P2;SDS_P1;SDS_P2;PMS_P1;PMS_P2;Temp;Humidity;BMP_temperature;BMP_pressure;BME280_temperature;BME280_humidity;BME280_pressure;Samples;Min_cycle;Max_cycle;Signal;HPM_P1;HPM_P2
2022/10/21 00:00:53;;;;;;;0.30;0.30;;;16.70;99.90;;;;;;6162375;23;20374;-81
2022/10/21 00:03:21;;;;;;;0.30;0.30;;;16.70;99.90;;;;;;6163951;23;20374;-81
2022/10/21 00:05:48;;;;;;;0.30;0.30;;;16.60;99.90;;;;;;6160051;23;20389;-81
2022/10/21 00:08:16;;;;;;;0.40;0.40;;;16.60;99.90;;;;;;6162882;23;20400;-81
2022/10/21 00:10:43;;;;;;;0.40;0.40;;;16.60;99.90;;;;;;6159255;23;20389;-81
2022/10/21 00:13:10;;;;;;;0.40;0.40;;;16.50;99.90;;;;;;6165703;23;20421;-81
2022/10/21 00:15:37;;;;;;;0.40;0.40;;;16.50;99.90;;;;;;6159270;23;20453;-81
2022/10/21 00:18:04;;;;;;;0.40;0.40;;;16.50;99.90;;;;;;6159945;23;20779;-81
2022/10/21 00:20:31;;;;;;;0.30;0.30;;;16.50;99.90;;;;;;6155962;23;20405;-81
2022/10/21 00:23:02;;;;;;;0.30;0.30;;;16.50;99.90;;;;;;6159983;23;20398;-80
2022/10/21 00:25:29;;;;;;;0.30;0.30;;;16.50;99.90;;;;;;6162785;23;20376;-81
2022/10/21 00:27:57;;;;;;;0.30;0.30;;;16.60;99.90;;;;;;6160659;23;20402;-81
2022/10/21 00:30:23;;;;;;;0.30;0.30;;;16.60;99.90;;;;;;6159773;23;20426;-81
2022/10/21 00:32:50;;;;;;;0.40;0.40;;;16.60;99.90;;;;;;6160497;23;20447;-81
2022/10/21 00:35:17;;;;;;;0.30;0.30;;;16.70;99.90;;;;;;6159882;23;20726;-81
2022/10/21 00:37:44;;;;;;;0.38;0.38;;;16.60;99.90;;;;;;6161100;23;20756;-81
2022/10/21 00:40:11;;;;;;;0.30;0.30;;;16.60;99.90;;;;;;6136351;23;20417;-81
2022/10/21 00:42:39;;;;;;;0.30;0.30;;;16.60;99.90;;;;;;6133979;23;20378;-81
2022/10/21 00:45:30;;;;;;;0.30;0.30;;;16.60;99.90;;;;;;6137122;23;20386;-80
2022/10/21 00:48:08;;;;;;;0.20;0.20;;;16.60;99.90;;;;;;6157764;23;20468;-81
2022/10/21 00:50:45;;;;;;;0.30;0.30;;;16.70;99.90;;;;;;6133612;23;20377;-81
2022/10/21 00:53:14;;;;;;;0.30;0.30;;;16.60;99.90;;;;;;6135954;23;20461;-81
2022/10/21 00:55:47;;;;;;;0.30;0.30;;;16.60;99.90;;;;;;6133929;23;20949;-81
2022/10/21 00:58:17;;;;;;;0.30;0.30;;;16.60;99.90;;;;;;6161909;23;20408;-81
2022/10/21 01:00:44;;;;;;;0.40;0.40;;;16.60;99.90;;;;;;6133282;23;20393;-81
2022/10/21 01:03:11;;;;;;;0.40;0.40;;;16.60;99.90;;;;;;6159680;23;20428;-81
2022/10/21 01:05:39;;;;;;;0.40;0.40;;;16.50;99.90;;;;;;6134916;23;20416;-81
2022/10/21 01:08:06;;;;;;;0.43;0.43;;;16.50;99.90;;;;;;6134137;23;20385;-81
2022/10/21 01:10:33;;;;;;;0.40;0.40;;;16.40;99.90;;;;;;6137046;23;20410;-81
2022/10/21 01:13:03;;;;;;;0.30;0.30;;;16.40;99.90;;;;;;6135209;23;20823;-81
2022/10/21 01:15:51;;;;;;;0.30;0.30;;;16.40;99.90;;;;;;6134355;23;20394;-81
2022/10/21 01:18:51;;;;;;;0.45;0.45;;;16.50;99.90;;;;;;6159306;23;20386;-81
2022/10/21 01:21:40;;;;;;;0.32;0.32;;;16.40;99.90;;;;;;6133285;23;20381;-81
2022/10/21 01:24:31;;;;;;;0.33;0.33;;;16.40;99.90;;;;;;6160740;23;20449;-82
2022/10/21 01:27:15;;;;;;;0.35;0.35;;;16.40;99.90;;;;;;6132704;23;20778;-81
2022/10/21 01:29:45;;;;;;;0.30;0.30;;;16.50;99.90;;;;;;6161751;23;20469;-81
2022/10/21 01:32:39;;;;;;;0.40;0.40;;;16.40;99.90;;;;;;6133996;23;20469;-81
2022/10/21 01:35:29;;;;;;;0.30;0.30;;;16.40;99.90;;;;;;6133135;23;20460;-81
2022/10/21 01:38:02;;;;;;;0.30;0.30;;;16.40;99.90;;;;;;6136076;23;20396;-81
2022/10/21 01:40:44;;;;;;;0.30;0.30;;;16.40;99.90;;;;;;6135289;23;20421;-82
2022/10/21 01:43:20;;;;;;;0.30;0.30;;;16.40;99.90;;;;;;6136016;23;20402;-81
2022/10/21 01:46:01;;;;;;;0.30;0.30;;;16.40;99.90;;;;;;6138113;23;20694;-81
2022/10/21 01:48:32;;;;;;;0.40;0.40;;;16.40;99.90;;;;;;6163137;23;20377;-81
2022/10/21 01:51:03;;;;;;;0.40;0.40;;;16.40;99.90;;;;;;6139501;23;20750;-81
2022/10/21 01:53:41;;;;;;;0.30;0.30;;;16.40;99.90;;;;;;6135641;23;20400;-80
2022/10/21 01:56:10;;;;;;;0.40;0.40;;;16.40;99.90;;;;;;6158251;23;20939;-80
2022/10/21 01:58:40;;;;;;;0.30;0.30;;;16.40;99.90;;;;;;6161781;23;20470;-81
2022/10/21 02:01:09;;;;;;;0.40;0.40;;;16.40;99.90;;;;;;6132634;23;20382;-81
2022/10/21 02:03:39;;;;;;;0.40;0.40;;;16.40;99.90;;;;;;6135483;23;20377;-81
2022/10/21 02:06:07;;;;;;;0.30;0.30;;;16.40;99.90;;;;;;6134217;23;20453;-81
2022/10/21 02:08:34;;;;;;;0.35;0.35;;;16.40;99.90;;;;;;6134696;23;20445;-81
2022/10/21 02:11:06;;;;;;;0.38;0.38;;;16.40;99.90;;;;;;6134779;23;20386;-81
2022/10/21 02:14:18;;;;;;;0.40;0.40;;;16.40;99.90;;;;;;6135486;23;20390;-81
2022/10/21 02:16:46;;;;;;;0.30;0.30;;;16.40;99.90;;;;;;6091379;23;20457;-81
2022/10/21 02:19:15;;;;;;;0.40;0.40;;;16.40;99.90;;;;;;6133148;23;20768;-81
2022/10/21 02:21:44;;;;;;;0.43;0.43;;;16.40;99.90;;;;;;6134475;23;20399;-81
2022/10/21 02:24:44;;;;;;;0.40;0.40;;;16.40;99.90;;;;;;6133314;23;20441;-82
2022/10/21 02:27:11;;;;;;;0.40;0.40;;;16.40;99.90;;;;;;6133123;23;20787;-82
2022/10/21 02:29:41;;;;;;;0.40;0.40;;;16.40;99.90;;;;;;6134726;23;20409;-81
2022/10/21 02:32:28;;;;;;;0.40;0.40;;;16.40;99.90;;;;;;6132517;23;20381;-81
2022/10/21 02:35:23;;;;;;;0.50;0.47;;;16.40;99.90;;;;;;6134298;23;20447;-81
2022/10/21 02:38:00;;;;;;;0.50;0.50;;;16.40;99.90;;;;;;6132621;23;20402;-81
2022/10/21 02:40:43;;;;;;;0.50;0.50;;;16.40;99.90;;;;;;6131687;23;20386;-81
2022/10/21 02:43:30;;;;;;;0.45;0.45;;;16.40;99.90;;;;;;6132029;23;20842;-81
2022/10/21 02:46:06;;;;;;;0.50;0.50;;;16.40;99.90;;;;;;6132306;23;20390;-81
2022/10/21 02:48:34;;;;;;;0.43;0.43;;;16.30;99.90;;;;;;6131422;23;20377;-80
2022/10/21 02:51:06;;;;;;;0.50;0.50;;;16.30;99.90;;;;;;6128815;23;20410;-79
2022/10/21 02:53:34;;;;;;;0.53;0.50;;;16.40;99.90;;;;;;6127912;23;20441;-79
2022/10/21 02:56:01;;;;;;;0.40;0.40;;;16.40;99.90;;;;;;6127765;23;20389;-79
2022/10/21 02:58:28;;;;;;;0.47;0.47;;;16.40;99.90;;;;;;6128138;23;20378;-79
2022/10/21 03:00:55;;;;;;;0.50;0.50;;;16.30;99.90;;;;;;6128184;23;20464;-78
2022/10/21 03:03:23;;;;;;;0.50;0.50;;;16.30;99.90;;;;;;6152665;23;20370;-78
2022/10/21 03:05:50;;;;;;;0.40;0.40;;;16.20;99.90;;;;;;6127377;23;20402;-79
2022/10/21 03:08:17;;;;;;;0.40;0.40;;;16.10;99.90;;;;;;6128497;23;20369;-79
2022/10/21 03:10:48;;;;;;;0.40;0.40;;;16.20;99.90;;;;;;6127216;23;20370;-78
2022/10/21 03:13:19;;;;;;;0.50;0.50;;;16.20;99.90;;;;;;6128317;23;20387;-79
2022/10/21 03:15:48;;;;;;;0.55;0.55;;;16.20;99.90;;;;;;6128097;23;20390;-79
2022/10/21 03:18:15;;;;;;;0.60;0.60;;;16.10;99.90;;;;;;6151516;23;20722;-78
2022/10/21 03:20:42;;;;;;;0.50;0.50;;;16.00;99.90;;;;;;6128038;23;20458;-78
2022/10/21 03:23:09;;;;;;;0.50;0.50;;;16.00;99.90;;;;;;6127479;23;20369;-79
2022/10/21 03:25:35;;;;;;;0.50;0.50;;;16.00;99.90;;;;;;6128069;23;20453;-78
2022/10/21 03:28:02;;;;;;;0.50;0.50;;;16.10;99.90;;;;;;6127019;23;20461;-79
2022/10/21 03:30:29;;;;;;;0.50;0.50;;;16.10;99.90;;;;;;6128312;23;20442;-79
2022/10/21 03:32:56;;;;;;;0.40;0.40;;;16.10;99.90;;;;;;6127551;23;20445;-79
2022/10/21 03:35:23;;;;;;;0.50;0.50;;;16.20;99.90;;;;;;6127851;23;20520;-80
2022/10/21 03:37:50;;;;;;;0.40;0.40;;;16.20;99.90;;;;;;6128081;23;20752;-79
2022/10/21 03:40:17;;;;;;;0.40;0.40;;;16.20;99.90;;;;;;6152623;23;20401;-79
2022/10/21 03:42:44;;;;;;;0.50;0.50;;;16.20;99.90;;;;;;6127792;23;20378;-79
2022/10/21 03:45:11;;;;;;;0.70;0.50;;;16.10;99.90;;;;;;6126837;23;20382;-79
2022/10/21 03:47:37;;;;;;;0.50;0.50;;;16.10;99.90;;;;;;6128081;23;20408;-79
2022/10/21 03:50:06;;;;;;;0.50;0.50;;;16.10;99.90;;;;;;6126953;23;20703;-80
2022/10/21 03:52:38;;;;;;;0.43;0.43;;;16.20;99.90;;;;;;6128994;23;20370;-79
2022/10/21 03:55:07;;;;;;;1.10;0.70;;;16.20;99.90;;;;;;6152181;23;20453;-80
2022/10/21 03:57:33;;;;;;;0.52;0.52;;;16.20;99.90;;;;;;6127593;23;20377;-80
2022/10/21 04:00:00;;;;;;;0.55;0.55;;;16.10;99.90;;;;;;6126525;23;20382;-80
2022/10/21 04:02:27;;;;;;;0.50;0.50;;;16.00;99.90;;;;;;6153814;23;20441;-79
2022/10/21 04:04:54;;;;;;;0.52;0.52;;;15.90;99.90;;;;;;6127153;23;20869;-79
2022/10/21 04:07:21;;;;;;;0.60;0.60;;;15.90;99.90;;;;;;6127038;23;20370;-80
2022/10/21 04:09:48;;;;;;;0.60;0.60;;;16.00;99.90;;;;;;6127584;23;20899;-79
2022/10/21 04:12:15;;;;;;;0.60;0.60;;;16.00;99.90;;;;;;6127098;23;20446;-80
2022/10/21 04:14:41;;;;;;;0.70;0.70;;;16.00;99.90;;;;;;6127746;23;20469;-80
2022/10/21 04:17:08;;;;;;;0.80;0.80;;;16.00;99.90;;;;;;6126997;23;20823;-80
2022/10/21 04:19:35;;;;;;;0.60;0.60;;;16.00;99.90;;;;;;6127258;23;20382;-80
2022/10/21 04:22:02;;;;;;;0.60;0.60;;;16.00;99.90;;;;;;6127121;23;20783;-80
2022/10/21 04:24:29;;;;;;;0.65;0.65;;;16.00;99.90;;;;;;6127505;23;20507;-81
2022/10/21 04:26:56;;;;;;;0.60;0.60;;;16.00;99.90;;;;;;6128201;23;20374;-80
2022/10/21 04:29:22;;;;;;;0.40;0.40;;;16.00;99.90;;;;;;6152499;23;20766;-80
2022/10/21 04:31:51;;;;;;;0.68;0.68;;;16.10;99.90;;;;;;6128022;23;20854;-82
2022/10/21 04:34:18;;;;;;;0.70;0.70;;;16.10;99.90;;;;;;6126590;23;20366;-82
2022/10/21 04:36:45;;;;;;;0.70;0.70;;;16.10;99.90;;;;;;6127406;23;20457;-82
2022/10/21 04:39:12;;;;;;;0.70;0.70;;;16.10;99.90;;;;;;6140149;23;20410;-83
2022/10/21 04:41:38;;;;;;;0.70;0.70;;;16.00;99.90;;;;;;6151764;23;20370;-83
2022/10/21 04:44:06;;;;;;;0.80;0.80;;;16.00;99.90;;;;;;6151196;23;20405;-83
2022/10/21 04:46:33;;;;;;;0.68;0.68;;;16.00;99.90;;;;;;6151539;23;20442;-84
2022/10/21 04:49:00;;;;;;;0.70;0.70;;;16.00;99.90;;;;;;6151213;23;20470;-83
2022/10/21 04:51:27;;;;;;;0.60;0.60;;;16.10;99.90;;;;;;6151851;23;20370;-82
2022/10/21 04:53:54;;;;;;;0.63;0.63;;;16.10;99.90;;;;;;6151837;23;20823;-83
2022/10/21 04:56:20;;;;;;;0.70;0.70;;;16.10;99.90;;;;;;6150787;23;20429;-83
2022/10/21 04:58:47;;;;;;;0.80;0.80;;;16.10;99.90;;;;;;6151846;23;20370;-83
2022/10/21 05:01:14;;;;;;;0.77;0.77;;;16.00;99.90;;;;;;6150457;23;20386;-83
2022/10/21 05:03:41;;;;;;;0.80;0.80;;;16.00;99.90;;;;;;6152017;23;20389;-82
2022/10/21 05:06:08;;;;;;;0.60;0.60;;;16.00;99.90;;;;;;6151025;23;20378;-83
2022/10/21 05:08:35;;;;;;;0.60;0.60;;;16.00;99.90;;;;;;6151841;23;20374;-82
2022/10/21 05:11:02;;;;;;;0.50;0.50;;;16.10;99.90;;;;;;6150871;23;20830;-82
2022/10/21 05:13:30;;;;;;;0.60;0.60;;;16.10;99.90;;;;;;6152091;23;20377;-82
2022/10/21 05:16:01;;;;;;;0.70;0.70;;;16.20;99.90;;;;;;6151003;23;20385;-82
2022/10/21 05:18:29;;;;;;;0.57;0.57;;;16.20;99.90;;;;;;6151261;23;20376;-81
2022/10/21 05:20:57;;;;;;;0.40;0.40;;;16.20;99.90;;;;;;6151276;23;20386;-81
2022/10/21 05:23:25;;;;;;;0.60;0.60;;;16.20;99.90;;;;;;6151053;23;20372;-81
2022/10/21 05:25:52;;;;;;;0.50;0.50;;;16.20;99.90;;;;;;6151552;23;20709;-82
2022/10/21 05:28:20;;;;;;;0.40;0.40;;;16.30;99.90;;;;;;6150415;23;20376;-82
2022/10/21 05:30:47;;;;;;;0.60;0.60;;;16.30;99.90;;;;;;6151471;23;20684;-81
2022/10/21 05:33:14;;;;;;;0.70;0.70;;;16.30;99.90;;;;;;6150607;23;20460;-82
2022/10/21 05:35:41;;;;;;;0.70;0.70;;;16.20;99.90;;;;;;6151433;23;20382;-83
2022/10/21 05:38:08;;;;;;;0.80;0.80;;;16.10;99.90;;;;;;6151456;23;20378;-82
2022/10/21 05:40:35;;;;;;;0.80;0.80;;;16.10;99.90;;;;;;6152255;23;20437;-82
2022/10/21 05:43:01;;;;;;;0.80;0.80;;;16.00;99.90;;;;;;6126722;23;20711;-83
2022/10/21 05:45:28;;;;;;;0.80;0.80;;;15.90;99.90;;;;;;6125963;23;20382;-82
2022/10/21 05:47:55;;;;;;;0.80;0.80;;;16.00;99.90;;;;;;6127318;23;20369;-83
2022/10/21 05:50:22;;;;;;;0.90;0.90;;;16.00;99.90;;;;;;6141070;23;20409;-81
2022/10/21 05:52:49;;;;;;;1.00;1.00;;;15.90;99.90;;;;;;6143399;23;20381;-80
2022/10/21 05:55:16;;;;;;;0.85;0.85;;;15.90;99.90;;;;;;6147241;23;20377;-81
2022/10/21 05:57:42;;;;;;;0.90;0.90;;;15.90;99.90;;;;;;6146755;23;20401;-82
2022/10/21 06:00:10;;;;;;;0.90;0.90;;;15.90;99.90;;;;;;6171508;23;20412;-81
2022/10/21 06:02:37;;;;;;;1.00;1.00;;;15.90;99.90;;;;;;6145901;23;20749;-81
2022/10/21 06:05:05;;;;;;;1.00;1.00;;;15.80;99.90;;;;;;6145989;23;20393;-81
2022/10/21 06:07:32;;;;;;;0.80;0.80;;;15.80;99.90;;;;;;6167994;23;20362;-81
2022/10/21 06:10:15;;;;;;;0.82;0.82;;;15.80;99.90;;;;;;6142576;23;20801;-80
2022/10/21 06:12:42;;;;;;;0.70;0.70;;;15.90;99.90;;;;;;6138528;23;20370;-80
2022/10/21 06:15:09;;;;;;;0.80;0.80;;;15.90;99.90;;;;;;6143517;23;20379;-81
2022/10/21 06:17:36;;;;;;;1.00;1.00;;;16.00;99.90;;;;;;6140803;23;20392;-81
2022/10/21 06:20:04;;;;;;;0.73;0.73;;;15.90;99.90;;;;;;6142592;23;20402;-80
2022/10/21 06:22:31;;;;;;;1.00;1.00;;;16.00;99.90;;;;;;6146794;23;20362;-81
2022/10/21 06:24:57;;;;;;;0.75;0.75;;;16.00;99.90;;;;;;6146186;23;20389;-81
2022/10/21 06:27:24;;;;;;;0.80;0.80;;;16.00;99.90;;;;;;6169862;23;20394;-80
2022/10/21 06:29:51;;;;;;;0.80;0.80;;;16.10;99.90;;;;;;6146876;23;20381;-81
2022/10/21 06:32:18;;;;;;;0.65;0.65;;;16.10;99.90;;;;;;6146997;23;20385;-80
2022/10/21 06:34:45;;;;;;;0.70;0.70;;;16.10;99.90;;;;;;6147958;23;20434;-79
2022/10/21 06:37:12;;;;;;;0.80;0.80;;;16.10;99.90;;;;;;6146279;23;20393;-80
2022/10/21 06:39:38;;;;;;;1.00;1.00;;;16.20;99.90;;;;;;6171455;23;20401;-80
2022/10/21 06:42:05;;;;;;;1.10;1.10;;;16.10;99.90;;;;;;6171911;23;20374;-80
2022/10/21 06:44:32;;;;;;;0.75;0.75;;;16.10;99.90;;;;;;6146033;23;20370;-80
2022/10/21 06:46:59;;;;;;;0.82;0.82;;;16.10;99.90;;;;;;6174350;23;20386;-81
2022/10/21 06:49:26;;;;;;;0.80;0.80;;;16.20;99.90;;;;;;6146907;23;20413;-80
2022/10/21 06:51:52;;;;;;;0.82;0.82;;;16.20;99.90;;;;;;6146989;23;20405;-81
2022/10/21 06:54:19;;;;;;;0.70;0.70;;;16.20;99.90;;;;;;6171542;23;20443;-80
2022/10/21 06:56:46;;;;;;;0.70;0.70;;;16.20;99.90;;;;;;6146521;23;20386;-81
2022/10/21 06:59:13;;;;;;;0.70;0.70;;;16.20;99.90;;;;;;6143182;23;20421;-80
2022/10/21 07:01:40;;;;;;;0.80;0.80;;;16.20;99.90;;;;;;6138631;23;20429;-80
2022/10/21 07:04:25;;;;;;;0.93;0.93;;;16.10;99.90;;;;;;6144183;23;20374;-80
2022/10/21 07:06:52;;;;;;;1.20;1.20;;;16.00;99.90;;;;;;6140556;23;20374;-81
2022/10/21 07:09:18;;;;;;;1.05;1.05;;;15.90;99.90;;;;;;6167555;23;20403;-81
2022/10/21 07:11:45;;;;;;;1.10;1.10;;;15.90;99.90;;;;;;6138875;23;20358;-80
2022/10/21 07:14:12;;;;;;;1.10;1.10;;;15.90;99.90;;;;;;6139824;23;20438;-81
2022/10/21 07:16:39;;;;;;;1.03;1.03;;;15.90;99.90;;;;;;6138905;23;20366;-80
2022/10/21 07:19:06;;;;;;;1.00;1.00;;;15.90;99.90;;;;;;6140597;23;20465;-80
2022/10/21 07:21:33;;;;;;;1.10;1.10;;;16.00;99.90;;;;;;6139617;23;20386;-80
2022/10/21 07:24:00;;;;;;;1.10;1.10;;;16.00;99.90;;;;;;6142127;23;20378;-80
2022/10/21 07:26:29;;;;;;;0.80;0.80;;;15.90;99.90;;;;;;6145610;23;20414;-81
2022/10/21 07:28:58;;;;;;;1.20;1.20;;;15.90;99.90;;;;;;6148653;23;20704;-81
2022/10/21 07:31:27;;;;;;;1.10;1.10;;;16.00;99.90;;;;;;6140282;23;20429;-82
2022/10/21 07:33:54;;;;;;;0.80;0.80;;;15.90;99.90;;;;;;6132029;23;20398;-81
2022/10/21 07:36:27;;;;;;;0.70;0.70;;;15.90;99.90;;;;;;6135017;23;20405;-81
2022/10/21 07:38:56;;;;;;;0.90;0.90;;;16.00;99.90;;;;;;6169513;23;20393;-81
2022/10/21 07:41:30;;;;;;;0.60;0.60;;;16.00;99.90;;;;;;6161220;23;20870;-82
2022/10/21 07:43:58;;;;;;;1.08;1.08;;;16.10;99.90;;;;;;6157456;23;20830;-82
2022/10/21 07:46:25;;;;;;;1.10;1.10;;;16.10;99.90;;;;;;6158764;23;20477;-82
2022/10/21 07:48:52;;;;;;;1.40;1.40;;;16.10;99.90;;;;;;6160424;23;20847;-82
2022/10/21 07:51:21;;;;;;;1.20;1.20;;;16.00;99.90;;;;;;6160742;23;20397;-82
2022/10/21 07:53:56;;;;;;;0.88;0.88;;;15.90;99.90;;;;;;6160826;23;20369;-82
2022/10/21 07:56:28;;;;;;;1.13;1.13;;;15.90;99.90;;;;;;6159496;23;20454;-82
2022/10/21 07:58:56;;;;;;;1.13;1.13;;;15.90;99.90;;;;;;6159974;23;20389;-81
2022/10/21 08:01:24;;;;;;;1.10;1.10;;;15.90;99.90;;;;;;6160644;23;20461;-81
2022/10/21 08:03:53;;;;;;;1.38;1.30;;;15.80;99.90;;;;;;6160209;23;20410;-82
2022/10/21 08:06:21;;;;;;;1.40;1.40;;;15.80;99.90;;;;;;6159326;23;20378;-79
2022/10/21 08:08:48;;;;;;;1.52;1.52;;;15.80;99.90;;;;;;6156093;23;20374;-81
2022/10/21 08:11:22;;;;;;;1.60;1.50;;;15.80;99.90;;;;;;6159016;23;20457;-82
2022/10/21 08:13:50;;;;;;;1.60;1.60;;;15.80;99.90;;;;;;6159552;23;20379;-82
2022/10/21 08:16:16;;;;;;;1.45;1.45;;;15.80;99.90;;;;;;6159247;23;20931;-82
2022/10/21 08:18:43;;;;;;;1.20;1.20;;;15.80;99.90;;;;;;6157035;23;20381;-81
2022/10/21 08:21:10;;;;;;;0.95;0.95;;;15.80;99.90;;;;;;6161553;23;20831;-81
2022/10/21 08:23:37;;;;;;;0.82;0.82;;;15.90;99.90;;;;;;6159240;23;20851;-82
2022/10/21 08:26:09;;;;;;;1.10;1.10;;;16.00;99.90;;;;;;6159742;23;20381;-80
2022/10/21 08:28:36;;;;;;;1.10;1.10;;;16.00;99.90;;;;;;6157359;23;20398;-82
2022/10/21 08:31:12;;;;;;;0.90;0.90;;;16.00;99.90;;;;;;6160510;23;20366;-81
2022/10/21 08:33:39;;;;;;;1.20;1.20;;;16.00;99.90;;;;;;6158612;23;20382;-81
2022/10/21 08:36:08;;;;;;;1.02;1.02;;;16.10;99.90;;;;;;6161366;23;20370;-81
2022/10/21 08:38:35;;;;;;;1.10;1.10;;;16.10;99.90;;;;;;6159750;23;20456;-81
2022/10/21 08:41:16;;;;;;;1.02;1.02;;;16.10;99.90;;;;;;6157190;23;20851;-81
2022/10/21 08:43:43;;;;;;;1.10;1.10;;;16.10;99.90;;;;;;6159512;23;20379;-82
2022/10/21 08:46:15;;;;;;;1.25;1.25;;;16.10;99.90;;;;;;6159398;23;20408;-81
2022/10/21 08:48:48;;;;;;;1.05;1.05;;;16.00;99.90;;;;;;6135652;23;20430;-82
2022/10/21 08:51:40;;;;;;;1.00;1.00;;;16.00;99.90;;;;;;6137572;23;20548;-82
2022/10/21 08:54:34;;;;;;;0.80;0.80;;;16.00;99.90;;;;;;6141454;23;20382;-82
2022/10/21 08:57:01;;;;;;;0.90;0.90;;;16.00;99.90;;;;;;6134414;23;20468;-81
2022/10/21 08:59:28;;;;;;;0.77;0.77;;;16.10;99.90;;;;;;6160352;23;20401;-81
2022/10/21 09:02:11;;;;;;;0.68;0.68;;;16.10;99.90;;;;;;6132323;23;20405;-81
2022/10/21 09:04:42;;;;;;;1.00;1.00;;;16.20;99.90;;;;;;6138386;23;20449;-81
2022/10/21 09:07:35;;;;;;;0.68;0.68;;;16.20;99.90;;;;;;6141715;23;20374;-80
2022/10/21 09:10:19;;;;;;;0.80;0.80;;;16.30;99.90;;;;;;6145395;23;20385;-82
2022/10/21 09:13:01;;;;;;;0.90;0.90;;;16.30;99.90;;;;;;6166607;23;20420;-82
2022/10/21 09:15:52;;;;;;;0.83;0.83;;;16.30;99.90;;;;;;6140580;23;20433;-81
2022/10/21 09:18:31;;;;;;;0.70;0.70;;;16.40;99.90;;;;;;6135212;23;20393;-81
2022/10/21 09:21:17;;;;;;;0.80;0.80;;;16.40;99.90;;;;;;6138880;23;20851;-81
2022/10/21 09:24:14;;;;;;;0.70;0.70;;;16.50;99.90;;;;;;6139463;23;20401;-82
2022/10/21 09:26:50;;;;;;;0.60;0.60;;;16.50;99.90;;;;;;6143772;23;20421;-82
2022/10/21 09:29:34;;;;;;;1.10;1.10;;;16.50;99.90;;;;;;6143925;23;20381;-82
2022/10/21 09:32:07;;;;;;;0.95;0.95;;;16.60;99.90;;;;;;6142287;23;20385;-81
2022/10/21 09:34:47;;;;;;;0.80;0.80;;;16.60;99.90;;;;;;6141750;23;20401;-81
2022/10/21 09:37:27;;;;;;;0.80;0.80;;;16.60;99.90;;;;;;6138191;23;20426;-81
2022/10/21 09:40:12;;;;;;;0.68;0.68;;;16.60;99.90;;;;;;6177820;23;20366;-81
2022/10/21 09:42:39;;;;;;;0.70;0.70;;;16.70;99.90;;;;;;6164165;23;20377;-81
2022/10/21 09:45:23;;;;;;;0.70;0.70;;;16.80;99.90;;;;;;6165456;23;20362;-81
2022/10/21 09:47:57;;;;;;;0.70;0.70;;;16.90;99.90;;;;;;6167503;23;20696;-82
2022/10/21 09:50:26;;;;;;;0.85;0.85;;;16.90;99.90;;;;;;6168566;23;20362;-81
2022/10/21 09:53:20;;;;;;;0.65;0.65;;;17.00;99.90;;;;;;6157794;23;20381;-80
2022/10/21 09:56:00;;;;;;;0.80;0.80;;;17.10;99.90;;;;;;6157531;23;20397;-80
2022/10/21 09:58:43;;;;;;;0.68;0.68;;;17.20;99.90;;;;;;6160365;23;20436;-80
2022/10/21 10:01:19;;;;;;;0.60;0.60;;;17.20;99.90;;;;;;6161729;23;20401;-79
2022/10/21 10:03:49;;;;;;;0.60;0.60;;;17.20;99.90;;;;;;6157984;23;21068;-81
2022/10/21 10:06:37;;;;;;;0.70;0.70;;;17.30;99.90;;;;;;6159506;23;20398;-79
2022/10/21 10:09:26;;;;;;;0.60;0.60;;;17.40;99.90;;;;;;6161896;23;20381;-80
2022/10/21 10:12:03;;;;;;;0.60;0.60;;;17.40;99.90;;;;;;6161103;23;20383;-80
2022/10/21 10:14:48;;;;;;;0.60;0.60;;;17.40;99.90;;;;;;6158332;23;20378;-79
2022/10/21 10:17:28;;;;;;;0.60;0.60;;;17.40;99.90;;;;;;6160774;23;20389;-79
2022/10/21 10:20:04;;;;;;;0.50;0.50;;;17.30;99.90;;;;;;6160545;23;20718;-79
2022/10/21 10:22:37;;;;;;;0.60;0.60;;;17.30;99.90;;;;;;6158171;23;20381;-80
2022/10/21 10:25:18;;;;;;;0.70;0.70;;;17.20;99.90;;;;;;6156913;23;20378;-79
2022/10/21 10:28:02;;;;;;;0.60;0.60;;;17.00;99.90;;;;;;6156123;23;20385;-79
2022/10/21 10:30:41;;;;;;;0.70;0.70;;;17.10;99.90;;;;;;6156197;23;20373;-80
2022/10/21 10:33:34;;;;;;;0.50;0.50;;;17.10;99.90;;;;;;6159898;23;20416;-81
2022/10/21 10:36:06;;;;;;;0.75;0.75;;;17.10;99.90;;;;;;6161808;23;20420;-80
2022/10/21 10:38:50;;;;;;;0.60;0.60;;;17.10;99.90;;;;;;6160380;23;20435;-80
2022/10/21 10:41:17;;;;;;;0.70;0.70;;;17.00;99.90;;;;;;6161935;23;20884;-80
2022/10/21 10:43:52;;;;;;;0.60;0.60;;;17.10;99.90;;;;;;6162170;23;20374;-80
2022/10/21 10:46:33;;;;;;;0.52;0.52;;;17.10;99.90;;;;;;6159772;23;20370;-79
2022/10/21 10:49:17;;;;;;;0.45;0.45;;;17.20;99.90;;;;;;6159113;23;20373;-80
2022/10/21 10:52:07;;;;;;;0.60;0.60;;;17.30;99.90;;;;;;6137416;23;20889;-79
2022/10/21 10:54:36;;;;;;;0.60;0.60;;;17.30;99.90;;;;;;6159913;23;20398;-80
2022/10/21 10:57:14;;;;;;;0.57;0.57;;;17.30;99.90;;;;;;6162405;23;20381;-80
2022/10/21 10:59:44;;;;;;;0.60;0.60;;;17.40;99.90;;;;;;6163153;23;20453;-80
2022/10/21 11:02:11;;;;;;;0.60;0.60;;;17.40;99.90;;;;;;6160597;23;20448;-81
2022/10/21 11:05:15;;;;;;;0.57;0.57;;;17.40;99.90;;;;;;6157493;23;20374;-80
2022/10/21 11:08:04;;;;;;;0.60;0.60;;;17.20;99.90;;;;;;6155148;23;20389;-80
2022/10/21 11:10:38;;;;;;;0.50;0.50;;;17.20;99.90;;;;;;6156277;23;20397;-81
2022/10/21 11:13:11;;;;;;;0.60;0.60;;;17.20;99.90;;;;;;6156694;23;20457;-80
2022/10/21 11:15:44;;;;;;;0.60;0.60;;;17.20;99.90;;;;;;6158171;23;20449;-80
2022/10/21 11:18:17;;;;;;;0.50;0.50;;;17.30;99.90;;;;;;6154760;23;20445;-80
2022/10/21 11:21:03;;;;;;;0.50;0.50;;;17.30;99.90;;;;;;6158763;23;20453;-81
2022/10/21 11:23:48;;;;;;;0.50;0.50;;;17.40;99.90;;;;;;6163094;23;20370;-80
2022/10/21 11:26:26;;;;;;;0.55;0.55;;;17.50;99.90;;;;;;6163052;23;20374;-81
2022/10/21 11:29:39;;;;;;;0.50;0.50;;;17.50;99.90;;;;;;6164438;23;20409;-81
2022/10/21 11:32:25;;;;;;;0.50;0.50;;;17.60;99.90;;;;;;6161339;23;20458;-81
2022/10/21 11:35:03;;;;;;;0.60;0.60;;;17.70;99.90;;;;;;6158348;23;20381;-81
2022/10/21 11:37:52;;;;;;;0.63;0.63;;;17.70;99.90;;;;;;6163674;23;20707;-80
2022/10/21 11:40:38;;;;;;;0.60;0.60;;;17.70;99.90;;;;;;6162445;23;20374;-82
2022/10/21 11:43:17;;;;;;;0.50;0.50;;;17.70;99.90;;;;;;6138736;23;20374;-81
2022/10/21 11:45:50;;;;;;;0.50;0.50;;;17.70;99.90;;;;;;6164308;23;20370;-81
2022/10/21 11:48:44;;;;;;;0.60;0.60;;;17.80;99.90;;;;;;6140337;23;20766;-81
2022/10/21 11:51:39;;;;;;;0.60;0.60;;;17.80;99.90;;;;;;6140485;23;20374;-82
2022/10/21 11:54:23;;;;;;;0.50;0.50;;;17.80;99.90;;;;;;6140897;23;20377;-81
2022/10/21 11:57:12;;;;;;;0.50;0.50;;;17.80;99.90;;;;;;6139505;23;20408;-81
2022/10/21 12:00:09;;;;;;;0.50;0.50;;;17.80;99.90;;;;;;6140658;23;20386;-81
2022/10/21 12:02:54;;;;;;;0.50;0.50;;;17.90;99.90;;;;;;6138658;23;20374;-81
2022/10/21 12:05:32;;;;;;;0.40;0.40;;;17.80;99.90;;;;;;6162749;23;20385;-81
2022/10/21 12:08:14;;;;;;;0.50;0.50;;;17.80;99.90;;;;;;6137877;23;20373;-80
2022/10/21 12:10:47;;;;;;;0.50;0.50;;;17.80;99.90;;;;;;6141607;23;20381;-81
2022/10/21 12:13:28;;;;;;;0.50;0.50;;;17.80;99.90;;;;;;6142191;23;20850;-81
2022/10/21 12:15:59;;;;;;;0.50;0.50;;;17.70;99.90;;;;;;6143589;23;20366;-81
2022/10/21 12:18:28;;;;;;;0.50;0.50;;;17.70;99.90;;;;;;6163827;23;20389;-81
2022/10/21 12:20:57;;;;;;;0.43;0.43;;;17.60;99.90;;;;;;6142259;23;20362;-81
2022/10/21 12:23:28;;;;;;;0.40;0.40;;;17.60;99.90;;;;;;6142222;23;20558;-83
2022/10/21 12:26:29;;;;;;;0.50;0.50;;;17.60;99.90;;;;;;6141562;23;20442;-80
2022/10/21 12:29:00;;;;;;;0.40;0.40;;;17.60;99.90;;;;;;6141494;23;20373;-81
2022/10/21 12:31:33;;;;;;;0.50;0.50;;;17.70;99.90;;;;;;6147269;23;20383;-82
2022/10/21 12:34:02;;;;;;;0.50;0.50;;;17.70;99.90;;;;;;6145098;23;20374;-81
2022/10/21 12:36:50;;;;;;;0.40;0.40;;;17.70;99.90;;;;;;6148900;23;20386;-81
2022/10/21 12:39:32;;;;;;;0.40;0.40;;;17.60;99.90;;;;;;6151859;23;20454;-81
2022/10/21 12:42:21;;;;;;;0.50;0.50;;;17.70;99.90;;;;;;6173208;23;20381;-82
2022/10/21 12:44:51;;;;;;;0.60;0.60;;;17.70;99.90;;;;;;6174224;23;20396;-81
2022/10/21 12:47:32;;;;;;;0.60;0.60;;;17.70;99.90;;;;;;6172967;23;20374;-82
2022/10/21 12:50:32;;;;;;;0.50;0.50;;;17.70;99.90;;;;;;6172702;23;20767;-81
2022/10/21 12:53:28;;;;;;;0.47;0.47;;;17.70;99.90;;;;;;6173320;23;20371;-81
2022/10/21 12:55:57;;;;;;;0.47;0.47;;;17.60;99.90;;;;;;6172709;23;20361;-82
2022/10/21 12:58:32;;;;;;;0.50;0.50;;;17.50;99.90;;;;;;6173169;23;20374;-82
2022/10/21 13:01:01;;;;;;;0.50;0.50;;;17.50;99.90;;;;;;6173543;23;20358;-81
2022/10/21 13:03:49;;;;;;;0.45;0.45;;;17.50;99.90;;;;;;6156601;23;20431;-82
2022/10/21 13:06:52;;;;;;;0.50;0.50;;;17.60;99.90;;;;;;6159344;23;20715;-81
2022/10/21 13:09:40;;;;;;;0.50;0.50;;;17.60;99.90;;;;;;6174447;23;20379;-81
2022/10/21 13:12:07;;;;;;;0.40;0.40;;;17.60;99.90;;;;;;6172809;23;20377;-81
2022/10/21 13:14:45;;;;;;;0.50;0.50;;;17.70;99.90;;;;;;6174045;23;20354;-81
2022/10/21 13:17:20;;;;;;;0.50;0.50;;;17.60;99.90;;;;;;6172828;23;20397;-82
2022/10/21 13:19:49;;;;;;;0.68;0.68;;;17.60;99.90;;;;;;6172886;23;20377;-80